»·PEaware :: UAL576 KRNO-KLAS

UAL576 :: KRNO-KLAS

FLIGHT INFORMATION

Flight Status: Arrived
Operator:
United Airlines
More flights by this operator :: More flights under this callsign
Pilot: Anonymous 8274 (8274)
Aircraft: BOEING 737-200
(B732)
More flights by this aircraft type
Origin: KRNO Reno/Tahoe Intl
United States
Destination: KLAS McCarran Intl
United States
More flights between these airports :: More routes between these airports
Route: RENO9 FMG J92 BTY FUZZY8
File this flight plan on PilotEdge
Remarks:
Altitude:
(Current/Filed)
31,000ft
Speed:
(Current/Filed)
436kts
Departed: 15-Feb-20 01:32 PM
Arrived: 15-Feb-20 02:26 PM
Distance/Time
Traveled:
300nm/0:54
Distance/Time
To Go:
Arrived

Flight Plot

Page will automatically refresh every two minutes.

Flight plan parsing failed; only flown route is shown


Map Options




Map Legend


Flown Route
Filed Route
Departure Airport
Arrival Airport
Navaid (VOR, NDB)
Fix

Horizontal Profiles

Position Reports

Time Latitude Longitude Heading Altitude Ground
Speed
15-Feb-20 12:45 39.504449 -119.773245 1 4417ft 0kts
15-Feb-20 12:46 39.504449 -119.773245 1 4417ft 0kts
15-Feb-20 12:47 39.504449 -119.773245 1 4417ft 0kts
15-Feb-20 12:48 39.504449 -119.773245 1 4417ft 0kts
15-Feb-20 12:49 39.504449 -119.773245 1 4417ft 0kts
15-Feb-20 12:50 39.504449 -119.773245 1 4417ft 0kts
15-Feb-20 12:51 39.504449 -119.773245 1 4417ft 0kts
15-Feb-20 12:53 39.504449 -119.773245 1 4417ft 0kts
15-Feb-20 12:54 39.504449 -119.773245 1 4417ft 0kts
15-Feb-20 12:55 39.504448 -119.773245 1 4417ft 0kts
15-Feb-20 12:56 39.504448 -119.773245 1 4417ft 0kts
15-Feb-20 12:57 39.504448 -119.773245 1 4417ft 0kts
15-Feb-20 12:58 39.504448 -119.773245 1 4417ft 0kts
15-Feb-20 12:59 39.504448 -119.773245 1 4417ft 0kts
15-Feb-20 13:00 39.504448 -119.773245 1 4417ft 0kts
15-Feb-20 13:01 39.504448 -119.773245 1 4417ft 0kts
15-Feb-20 13:02 39.504448 -119.773245 1 4417ft 0kts
15-Feb-20 13:03 39.504448 -119.773245 1 4417ft 0kts
15-Feb-20 13:04 39.504448 -119.773245 1 4417ft 0kts
15-Feb-20 13:05 39.504448 -119.773245 1 4417ft 0kts
15-Feb-20 13:06 39.504448 -119.773245 1 4417ft 0kts
15-Feb-20 13:07 39.504448 -119.773245 1 4417ft 0kts
15-Feb-20 13:08 39.504448 -119.773245 1 4417ft 0kts
15-Feb-20 13:09 39.504448 -119.773245 1 4417ft 0kts
15-Feb-20 13:10 39.504448 -119.773245 1 4417ft 0kts
15-Feb-20 13:10 39.504448 -119.773245 1 4417ft 0kts
15-Feb-20 13:12 39.504448 -119.773245 1 4417ft 0kts
15-Feb-20 13:13 39.504448 -119.773245 1 4417ft 0kts
15-Feb-20 13:13 39.504448 -119.773245 1 4417ft 0kts
15-Feb-20 13:14 39.504448 -119.773245 1 4417ft 0kts
15-Feb-20 13:15 39.504448 -119.773245 1 4417ft 0kts
15-Feb-20 13:17 39.504448 -119.773245 1 4417ft 0kts
15-Feb-20 13:17 39.504448 -119.773245 1 4417ft 0kts
15-Feb-20 13:18 39.504137 -119.773257 1 4417ft 2kts
15-Feb-20 13:19 39.503731 -119.773633 89 4417ft 1kts
15-Feb-20 13:20 39.503731 -119.773655 89 4417ft 0kts
15-Feb-20 13:21 39.503731 -119.773655 89 4417ft 0kts
15-Feb-20 13:22 39.503731 -119.773655 89 4417ft 0kts
15-Feb-20 13:23 39.503732 -119.773135 90 4416ft 4kts
15-Feb-20 13:24 39.503726 -119.772247 90 4416ft 0kts
15-Feb-20 13:25 39.504762 -119.771488 359 4416ft 13kts
15-Feb-20 13:26 39.509812 -119.771485 0 4419ft 22kts
15-Feb-20 13:27 39.513738 -119.770624 89 4422ft 0kts
15-Feb-20 13:28 39.513738 -119.770624 89 4422ft 0kts
15-Feb-20 13:29 39.513737 -119.770253 89 4422ft 7kts
15-Feb-20 13:30 39.513185 -119.769219 180 4422ft 0kts
15-Feb-20 13:31 39.494536 -119.769270 179 4539ft 156kts
15-Feb-20 13:32 39.448000 -119.769009 179 6099ft 202kts
15-Feb-20 13:33 39.381102 -119.768801 177 8073ft 277kts
15-Feb-20 13:34 39.298839 -119.770562 180 10879ft 314kts
15-Feb-20 13:35 39.206771 -119.761385 182 13340ft 347kts
15-Feb-20 13:36 39.107759 -119.762811 187 15946ft 362kts
15-Feb-20 13:37 39.005531 -119.767429 186 18370ft 374kts
15-Feb-20 13:38 38.914528 -119.709864 120 19311ft 398kts
15-Feb-20 13:39 38.861306 -119.579356 115 19217ft 416kts
15-Feb-20 13:40 38.808691 -119.446135 114 19871ft 417kts
15-Feb-20 13:41 38.760690 -119.312419 113 21778ft 415kts
15-Feb-20 13:42 38.712166 -119.177132 113 23299ft 420kts
15-Feb-20 13:43 38.662687 -119.040819 112 24584ft 426kts
15-Feb-20 13:44 38.611151 -118.900580 112 25320ft 445kts
15-Feb-20 13:45 38.557264 -118.755345 112 26191ft 455kts
15-Feb-20 13:46 38.502162 -118.608183 112 27021ft 463kts
15-Feb-20 13:47 38.446036 -118.459236 112 27867ft 468kts
15-Feb-20 13:48 38.390650 -118.313331 112 28834ft 466kts
15-Feb-20 13:49 38.334119 -118.165700 112 29818ft 462kts
15-Feb-20 13:50 38.257887 -118.037662 147 30613ft 470kts
15-Feb-20 13:51 38.149709 -117.945604 138 31216ft 472kts
15-Feb-20 13:52 38.052961 -117.829386 133 31224ft 488kts
15-Feb-20 13:53 37.952005 -117.709882 139 31218ft 504kts
15-Feb-20 13:54 37.836066 -117.628122 141 31220ft 502kts
15-Feb-20 13:55 37.721068 -117.528602 145 31219ft 501kts
15-Feb-20 13:56 37.604540 -117.432628 145 31219ft 499kts
15-Feb-20 13:57 37.491202 -117.338755 144 31218ft 499kts
15-Feb-20 13:58 37.376619 -117.241276 144 31219ft 496kts
15-Feb-20 13:59 37.262580 -117.145932 145 31218ft 492kts
15-Feb-20 14:00 37.153141 -117.046418 140 29797ft 482kts
15-Feb-20 14:01 37.045180 -116.949624 146 27770ft 471kts
15-Feb-20 14:02 36.937011 -116.862243 146 25837ft 458kts
15-Feb-20 14:03 36.836212 -116.778280 146 24248ft 443kts
15-Feb-20 14:04 36.753849 -116.673387 127 24175ft 418kts
15-Feb-20 14:05 36.675489 -116.565517 132 24153ft 426kts
15-Feb-20 14:06 36.593717 -116.455847 131 24162ft 438kts
15-Feb-20 14:07 36.514830 -116.347760 129 24170ft 443kts
15-Feb-20 14:08 36.435771 -116.231165 129 23119ft 436kts
15-Feb-20 14:09 36.359384 -116.117523 129 21135ft 422kts
15-Feb-20 14:10 36.285899 -116.007296 128 19192ft 409kts
15-Feb-20 14:11 36.216934 -115.903126 129 16439ft 374kts
15-Feb-20 14:12 36.170511 -115.800359 111 15995ft 336kts
15-Feb-20 14:13 36.131418 -115.694404 113 16001ft 341kts
15-Feb-20 14:14 36.091437 -115.587623 113 15266ft 341kts
15-Feb-20 14:15 36.052033 -115.481156 113 13608ft 340kts
15-Feb-20 14:16 36.035937 -115.368621 91 12018ft 331kts
15-Feb-20 14:17 36.030899 -115.262553 92 10652ft 300kts
15-Feb-20 14:18 36.027023 -115.163212 98 8318ft 282kts
15-Feb-20 14:19 36.012794 -115.070349 100 5953ft 270kts
15-Feb-20 14:20 36.009487 -114.979040 69 4051ft 266kts
15-Feb-20 14:21 36.064323 -114.966279 308 3978ft 217kts
15-Feb-20 14:22 36.073794 -115.032294 269 3386ft 172kts
15-Feb-20 14:23 36.073708 -115.082978 268 2719ft 140kts
15-Feb-20 14:24 36.073649 -115.131795 270 2072ft 137kts
15-Feb-20 14:25 36.074780 -115.150721 308 2124ft 0kts
15-Feb-20 14:26 36.075031 -115.151081 317 2125ft 9kts
15-Feb-20 14:27 36.077327 -115.152546 333 2125ft 0kts
15-Feb-20 14:28 36.077740 -115.152734 346 2124ft 9kts
15-Feb-20 14:29 36.078567 -115.147821 93 2107ft 26kts
15-Feb-20 14:30 36.078898 -115.140484 309 2081ft 11kts
15-Feb-20 14:31 36.082170 -115.140047 46 2076ft 2kts

Navigation Log

Ident Type
Flight plan parsing failed, navigation log unavailable